AirNav   Everest Fuels
 
 1094 users online  

96TX Garrett Farms Airport
Danbury, Texas, USA

GOING TO DANBURY?


FAA INFORMATION EFFECTIVE 10 OCTOBER 2019

Location

FAA Identifier: 96TX
Lat/Long: 29-16-40.1800N 095-21-06.5800W
29-16.669667N 095-21.109667W
29.2778278,-95.3518278
(estimated)
Elevation: 30 ft. / 9 m
From city: 3 miles NNW of DANBURY, TX
Time zone: UTC -5 (UTC -6 during Standard Time)
Zip code: 77534

Airport Operations

Airport use: Private use. Permission required prior to landing
Activation date: 10/2015
Control tower: no
ARTCC: HOUSTON CENTER
FSS: MONTGOMERY COUNTY FLIGHT SERVICE STATION
Attendance: UNATNDD
Segmented circle: no

Airport Communications

WX ASOS at LBX (12 nm SW): 119.925 (979-849-3319)
WX AWOS-3 at AXH (15 nm NW): 123.625 (281-431-6572)
WX ASOS at LVJ (16 nm N): 118.525 (281-992-1853)

Nearby radio navigation aids

VOR radial/distance  VOR name  Freq  Var
HUBr185/23.0HOBBY VOR/DME117.1005E
VUHr265/25.3SCHOLES VOR/DME113.0006E
MHFr236/35.5TRINITY VOR/DME113.6007E

 
NDB name  Hdg/Dist  Freq  Var  ID
FREEP044/7.726305ELB .-.. -...
GALVESTON256/31.320608EGLS --. .-.. ...

Airport Services

Runway Information

Runway 8/26

Dimensions: 2450 x 30 ft. / 747 x 9 m
Surface: turf, in good condition
RUNWAY 8  RUNWAY 26
Traffic pattern: rightleft

Airport Ownership and Management from official FAA records

Ownership: Privately-owned
Owner: JOHN T. GARRETT JR.
1002 COUNTY ROAD 33
DANBURY, TX 77534-9785
Phone 979-922-8405
Manager: JOHN T. GARRETT JR.
1002 COUNTY ROAD 33
DANBURY, TX 77534-9785
Phone 979-922-8405

Additional Remarks

FOR CD CTC HOUSTON ARTCC AT 281-230-5622.

Instrument Procedures

There are no published instrument procedures at 96TX.

Some nearby airports with instrument procedures:

KLBX - Texas Gulf Coast Regional Airport (12 nm SW)
KAXH - Houston Southwest Airport (15 nm NW)
KLVJ - Pearland Regional Airport (16 nm N)
KEFD - Ellington Airport (22 nm NE)
KHOU - William P Hobby Airport (22 nm N)
 
Loc | Ops | Rwys | IFR | FBO | Links
Com | Nav | Svcs | Stats | Notes
Aerial photo
No photo
 
Airport distance calculator
Flying to Garrett Farms Airport? Find the distance to fly.

From to 96TX

Sunrise and sunset
Times for 22-Oct-2019
 Local
(UTC-5)
 Zulu
(UTC)
Morning civil twilight07:0412:04
Sunrise07:2812:28
Sunset18:4423:44
Evening civil twilight19:0800:08

Current date and time
Zulu (UTC)  22-Oct-2019 13:07:52
Local (UTC-5)  22-Oct-2019 08:07:52
 
METAR
KLBX 
11nm SW 
221253Z AUTO 03005KT 10SM CLR 13/09 A3013 RMK AO2 SLP203 T01280094
KAXH 
15nm NW 
221255Z AUTO 00000KT 10SM CLR 10/10 A3014 RMK AO2 T01000096
KLVJ 
15nm N 
221253Z AUTO 00000KT 10SM CLR 13/08 A3015 RMK AO2 SLP209 T01330083
KEFD 
22nm NE 
221150Z 09004KT 10SM FEW250 15/08 A3011
KHOU 
22nm N 
221253Z 06006KT 10SM FEW250 14/08 A3013 RMK AO2 SLP209 T01440078
TAF
KLBX 
11nm SW 
221120Z 2212/2312 02004KT P6SM SKC FM221500 05011KT P6SM SKC FM230100 09004KT P6SM SKC
NOTAMs
Click for the latest NOTAMs
NOTAMs are issued by the DoD/FAA and will open in a separate window not controlled by AirNav.

 

 
 

Would you like to see your business listed on this page?

 If your business provides an interesting product or service to pilots, flight crews, aircraft, or users of the Garrett Farms Airport, you should consider listing it here.  To start the listing process, click on the button below
 
Add a business
 

Other Pages about Garrett Farms Airport

Update a link
 
Copyright © AirNav, LLC. All rights reserved. Privacy Policy  Contact